sensor_id;sensor_type;location;lat;lon;timestamp;temperature;humidity
4904;DHT22;2467;48.142;11.616;2023-07-29T00:00:30;18.40;99.90
4904;DHT22;2467;48.142;11.616;2023-07-29T00:01:23;18.50;99.90
4904;DHT22;2467;48.142;11.616;2023-07-29T00:02:15;18.50;99.90
4904;DHT22;2467;48.142;11.616;2023-07-29T00:03:08;18.50;99.90
4904;DHT22;2467;48.142;11.616;2023-07-29T00:04:01;18.50;99.90
4904;DHT22;2467;48.142;11.616;2023-07-29T00:04:53;18.60;99.90
4904;DHT22;2467;48.142;11.616;2023-07-29T00:05:47;18.60;99.90
4904;DHT22;2467;48.142;11.616;2023-07-29T00:06:39;18.60;99.90
4904;DHT22;2467;48.142;11.616;2023-07-29T00:07:32;18.60;99.90
4904;DHT22;2467;48.142;11.616;2023-07-29T00:08:25;18.70;99.90
4904;DHT22;2467;48.142;11.616;2023-07-29T00:09:17;18.70;99.90
4904;DHT22;2467;48.142;11.616;2023-07-29T00:10:10;18.70;99.90
4904;DHT22;2467;48.142;11.616;2023-07-29T00:11:03;18.70;99.90
4904;DHT22;2467;48.142;11.616;2023-07-29T00:11:56;18.70;99.90
4904;DHT22;2467;48.142;11.616;2023-07-29T00:12:49;18.70;99.90
4904;DHT22;2467;48.142;11.616;2023-07-29T00:13:43;18.70;99.90
4904;DHT22;2467;48.142;11.616;2023-07-29T00:14:35;18.70;99.90
4904;DHT22;2467;48.142;11.616;2023-07-29T00:15:27;18.70;99.90
4904;DHT22;2467;48.142;11.616;2023-07-29T00:16:20;18.70;99.90
4904;DHT22;2467;48.142;11.616;2023-07-29T00:17:14;18.70;99.90
4904;DHT22;2467;48.142;11.616;2023-07-29T00:18:07;18.70;99.90
4904;DHT22;2467;48.142;11.616;2023-07-29T00:18:59;18.70;99.90
4904;DHT22;2467;48.142;11.616;2023-07-29T00:19:52;18.70;99.90
4904;DHT22;2467;48.142;11.616;2023-07-29T00:20:45;18.70;99.90
4904;DHT22;2467;48.142;11.616;2023-07-29T00:21:37;18.70;99.90
4904;DHT22;2467;48.142;11.616;2023-07-29T00:22:30;18.70;99.90
4904;DHT22;2467;48.142;11.616;2023-07-29T00:23:23;18.60;99.90
4904;DHT22;2467;48.142;11.616;2023-07-29T00:24:15;18.60;99.90
4904;DHT22;2467;48.142;11.616;2023-07-29T00:25:08;18.70;99.90
4904;DHT22;2467;48.142;11.616;2023-07-29T00:26:01;18.70;99.90
4904;DHT22;2467;48.142;11.616;2023-07-29T00:26:53;18.70;99.90
4904;DHT22;2467;48.142;11.616;2023-07-29T00:27:46;18.70;99.90
4904;DHT22;2467;48.142;11.616;2023-07-29T00:28:40;18.70;99.90
4904;DHT22;2467;48.142;11.616;2023-07-29T00:29:32;18.70;99.90
4904;DHT22;2467;48.142;11.616;2023-07-29T00:30:25;18.70;99.90
4904;DHT22;2467;48.142;11.616;2023-07-29T00:31:18;18.70;99.90
4904;DHT22;2467;48.142;11.616;2023-07-29T00:32:10;18.70;99.90
4904;DHT22;2467;48.142;11.616;2023-07-29T00:33:03;18.70;99.90
4904;DHT22;2467;48.142;11.616;2023-07-29T00:33:56;18.70;99.90
4904;DHT22;2467;48.142;11.616;2023-07-29T00:34:50;18.70;99.90
4904;DHT22;2467;48.142;11.616;2023-07-29T00:35:42;18.70;99.90
4904;DHT22;2467;48.142;11.616;2023-07-29T00:36:34;18.70;99.90
4904;DHT22;2467;48.142;11.616;2023-07-29T00:37:29;18.70;99.90
4904;DHT22;2467;48.142;11.616;2023-07-29T00:38:22;18.80;99.90
4904;DHT22;2467;48.142;11.616;2023-07-29T00:39:14;18.70;99.90
4904;DHT22;2467;48.142;11.616;2023-07-29T00:40:14;18.80;99.90
4904;DHT22;2467;48.142;11.616;2023-07-29T00:41:07;18.80;99.90
4904;DHT22;2467;48.142;11.616;2023-07-29T00:42:03;18.80;99.90
4904;DHT22;2467;48.142;11.616;2023-07-29T00:42:56;18.80;99.90
4904;DHT22;2467;48.142;11.616;2023-07-29T00:43:49;18.80;99.90
4904;DHT22;2467;48.142;11.616;2023-07-29T00:44:43;18.80;99.90
4904;DHT22;2467;48.142;11.616;2023-07-29T00:45:36;18.80;99.90
4904;DHT22;2467;48.142;11.616;2023-07-29T00:46:30;18.80;99.90
4904;DHT22;2467;48.142;11.616;2023-07-29T00:47:25;18.80;99.90
4904;DHT22;2467;48.142;11.616;2023-07-29T00:48:19;18.80;99.90
4904;DHT22;2467;48.142;11.616;2023-07-29T00:49:11;18.90;99.90
4904;DHT22;2467;48.142;11.616;2023-07-29T00:50:05;18.80;99.90
4904;DHT22;2467;48.142;11.616;2023-07-29T00:50:58;18.80;99.90
4904;DHT22;2467;48.142;11.616;2023-07-29T00:51:51;18.90;99.90
4904;DHT22;2467;48.142;11.616;2023-07-29T00:52:44;18.90;99.90
4904;DHT22;2467;48.142;11.616;2023-07-29T00:53:36;18.80;99.90
4904;DHT22;2467;48.142;11.616;2023-07-29T00:54:30;18.80;99.90
4904;DHT22;2467;48.142;11.616;2023-07-29T00:55:22;18.80;99.90
4904;DHT22;2467;48.142;11.616;2023-07-29T00:56:15;18.90;99.90
4904;DHT22;2467;48.142;11.616;2023-07-29T00:57:08;18.90;99.90
4904;DHT22;2467;48.142;11.616;2023-07-29T00:58:02;18.90;99.90
4904;DHT22;2467;48.142;11.616;2023-07-29T00:58:57;18.90;99.90
4904;DHT22;2467;48.142;11.616;2023-07-29T00:59:54;18.90;99.90
4904;DHT22;2467;48.142;11.616;2023-07-29T01:00:47;18.90;99.90
4904;DHT22;2467;48.142;11.616;2023-07-29T01:01:40;18.90;99.90
4904;DHT22;2467;48.142;11.616;2023-07-29T01:02:32;19.00;99.90
4904;DHT22;2467;48.142;11.616;2023-07-29T01:03:26;18.90;99.90
4904;DHT22;2467;48.142;11.616;2023-07-29T01:04:18;18.90;99.90
4904;DHT22;2467;48.142;11.616;2023-07-29T01:05:13;18.90;99.90
4904;DHT22;2467;48.142;11.616;2023-07-29T01:06:13;18.90;99.90
4904;DHT22;2467;48.142;11.616;2023-07-29T01:07:16;19.00;99.90
4904;DHT22;2467;48.142;11.616;2023-07-29T01:08:17;19.00;99.90
4904;DHT22;2467;48.142;11.616;2023-07-29T01:09:19;19.00;99.90
4904;DHT22;2467;48.142;11.616;2023-07-29T01:10:20;18.90;99.90
4904;DHT22;2467;48.142;11.616;2023-07-29T01:11:27;18.90;99.90
4904;DHT22;2467;48.142;11.616;2023-07-29T01:12:28;18.90;99.90
4904;DHT22;2467;48.142;11.616;2023-07-29T01:13:35;18.90;99.90
4904;DHT22;2467;48.142;11.616;2023-07-29T01:14:39;18.90;99.90
4904;DHT22;2467;48.142;11.616;2023-07-29T01:15:39;18.80;99.90
4904;DHT22;2467;48.142;11.616;2023-07-29T01:16:38;18.80;99.90
4904;DHT22;2467;48.142;11.616;2023-07-29T01:17:33;18.80;99.90
4904;DHT22;2467;48.142;11.616;2023-07-29T01:18:31;18.80;99.90
4904;DHT22;2467;48.142;11.616;2023-07-29T01:19:41;18.80;99.90
4904;DHT22;2467;48.142;11.616;2023-07-29T01:20:38;18.80;99.90
4904;DHT22;2467;48.142;11.616;2023-07-29T01:21:33;18.80;99.90
4904;DHT22;2467;48.142;11.616;2023-07-29T01:22:28;18.80;99.90
4904;DHT22;2467;48.142;11.616;2023-07-29T01:23:29;18.80;99.90
4904;DHT22;2467;48.142;11.616;2023-07-29T01:24:21;18.80;99.90
4904;DHT22;2467;48.142;11.616;2023-07-29T01:25:14;18.80;99.90
4904;DHT22;2467;48.142;11.616;2023-07-29T01:26:07;18.80;99.90
4904;DHT22;2467;48.142;11.616;2023-07-29T01:26:59;18.80;99.90
4904;DHT22;2467;48.142;11.616;2023-07-29T01:27:53;18.80;99.90
4904;DHT22;2467;48.142;11.616;2023-07-29T01:28:47;18.80;99.90
4904;DHT22;2467;48.142;11.616;2023-07-29T01:29:40;18.80;99.90
4904;DHT22;2467;48.142;11.616;2023-07-29T01:30:38;18.80;99.90
4904;DHT22;2467;48.142;11.616;2023-07-29T01:31:34;18.90;99.90
4904;DHT22;2467;48.142;11.616;2023-07-29T01:32:37;18.90;99.90
4904;DHT22;2467;48.142;11.616;2023-07-29T01:33:38;18.80;99.90
4904;DHT22;2467;48.142;11.616;2023-07-29T01:34:37;18.90;99.90
4904;DHT22;2467;48.142;11.616;2023-07-29T01:35:35;18.80;99.90
4904;DHT22;2467;48.142;11.616;2023-07-29T01:36:29;18.80;99.90
4904;DHT22;2467;48.142;11.616;2023-07-29T01:37:26;18.80;99.90
4904;DHT22;2467;48.142;11.616;2023-07-29T01:38:21;18.80;99.90
4904;DHT22;2467;48.142;11.616;2023-07-29T01:39:17;18.80;99.90
4904;DHT22;2467;48.142;11.616;2023-07-29T01:40:12;18.80;99.90
4904;DHT22;2467;48.142;11.616;2023-07-29T01:41:07;18.80;99.90
4904;DHT22;2467;48.142;11.616;2023-07-29T01:42:01;18.80;99.90
4904;DHT22;2467;48.142;11.616;2023-07-29T01:42:54;18.80;99.90
4904;DHT22;2467;48.142;11.616;2023-07-29T01:43:46;18.80;99.90
4904;DHT22;2467;48.142;11.616;2023-07-29T01:44:40;18.80;99.90
4904;DHT22;2467;48.142;11.616;2023-07-29T01:45:34;18.80;99.90
4904;DHT22;2467;48.142;11.616;2023-07-29T01:46:32;18.80;99.90
4904;DHT22;2467;48.142;11.616;2023-07-29T01:47:26;18.70;99.90
4904;DHT22;2467;48.142;11.616;2023-07-29T01:48:18;18.80;99.90
4904;DHT22;2467;48.142;11.616;2023-07-29T01:49:11;18.70;99.90
4904;DHT22;2467;48.142;11.616;2023-07-29T01:50:05;18.70;99.90
4904;DHT22;2467;48.142;11.616;2023-07-29T01:50:57;18.70;99.90
4904;DHT22;2467;48.142;11.616;2023-07-29T01:51:50;18.70;99.90
4904;DHT22;2467;48.142;11.616;2023-07-29T01:52:43;18.70;99.90
4904;DHT22;2467;48.142;11.616;2023-07-29T01:53:36;18.70;99.90
4904;DHT22;2467;48.142;11.616;2023-07-29T01:54:29;18.70;99.90
4904;DHT22;2467;48.142;11.616;2023-07-29T01:55:23;18.70;99.90
4904;DHT22;2467;48.142;11.616;2023-07-29T01:56:15;18.70;99.90
4904;DHT22;2467;48.142;11.616;2023-07-29T01:57:08;18.70;99.90
4904;DHT22;2467;48.142;11.616;2023-07-29T01:58:00;18.70;99.90
4904;DHT22;2467;48.142;11.616;2023-07-29T01:58:52;18.70;99.90
4904;DHT22;2467;48.142;11.616;2023-07-29T01:59:46;18.70;99.90
4904;DHT22;2467;48.142;11.616;2023-07-29T02:00:38;18.70;99.90
4904;DHT22;2467;48.142;11.616;2023-07-29T02:01:30;18.70;99.90
4904;DHT22;2467;48.142;11.616;2023-07-29T02:02:23;18.70;99.90
4904;DHT22;2467;48.142;11.616;2023-07-29T02:03:16;18.70;99.90
4904;DHT22;2467;48.142;11.616;2023-07-29T02:04:08;18.70;99.90
4904;DHT22;2467;48.142;11.616;2023-07-29T02:05:01;18.70;99.90
4904;DHT22;2467;48.142;11.616;2023-07-29T02:05:53;18.60;99.90
4904;DHT22;2467;48.142;11.616;2023-07-29T02:06:47;18.70;99.90
4904;DHT22;2467;48.142;11.616;2023-07-29T02:07:39;18.70;99.90
4904;DHT22;2467;48.142;11.616;2023-07-29T02:08:31;18.70;99.90
4904;DHT22;2467;48.142;11.616;2023-07-29T02:09:24;18.60;99.90
4904;DHT22;2467;48.142;11.616;2023-07-29T02:10:19;18.60;99.90
4904;DHT22;2467;48.142;11.616;2023-07-29T02:11:11;18.60;99.90
4904;DHT22;2467;48.142;11.616;2023-07-29T02:12:05;18.60;99.90
4904;DHT22;2467;48.142;11.616;2023-07-29T02:12:59;18.60;99.90
4904;DHT22;2467;48.142;11.616;2023-07-29T02:13:51;18.50;99.90
4904;DHT22;2467;48.142;11.616;2023-07-29T02:14:45;18.60;99.90
4904;DHT22;2467;48.142;11.616;2023-07-29T02:15:37;18.50;99.90
4904;DHT22;2467;48.142;11.616;2023-07-29T02:16:30;18.50;99.90
4904;DHT22;2467;48.142;11.616;2023-07-29T02:17:24;18.50;99.90
4904;DHT22;2467;48.142;11.616;2023-07-29T02:18:18;18.50;99.90
4904;DHT22;2467;48.142;11.616;2023-07-29T02:19:11;18.40;99.90
4904;DHT22;2467;48.142;11.616;2023-07-29T02:20:04;18.50;99.90
4904;DHT22;2467;48.142;11.616;2023-07-29T02:20:58;18.50;99.90
4904;DHT22;2467;48.142;11.616;2023-07-29T02:21:50;18.50;99.90
4904;DHT22;2467;48.142;11.616;2023-07-29T02:22:43;18.40;99.90
4904;DHT22;2467;48.142;11.616;2023-07-29T02:23:35;18.40;99.90
4904;DHT22;2467;48.142;11.616;2023-07-29T02:24:29;18.40;99.90
4904;DHT22;2467;48.142;11.616;2023-07-29T02:25:22;18.50;99.90
4904;DHT22;2467;48.142;11.616;2023-07-29T02:26:17;18.40;99.90
4904;DHT22;2467;48.142;11.616;2023-07-29T02:27:10;18.50;99.90
4904;DHT22;2467;48.142;11.616;2023-07-29T02:28:02;18.40;99.90
4904;DHT22;2467;48.142;11.616;2023-07-29T02:28:56;18.40;99.90
4904;DHT22;2467;48.142;11.616;2023-07-29T02:29:49;18.40;99.90
4904;DHT22;2467;48.142;11.616;2023-07-29T02:30:41;18.40;99.90
4904;DHT22;2467;48.142;11.616;2023-07-29T02:31:37;18.40;99.90
4904;DHT22;2467;48.142;11.616;2023-07-29T02:32:29;18.40;99.90
4904;DHT22;2467;48.142;11.616;2023-07-29T02:33:22;18.40;99.90
4904;DHT22;2467;48.142;11.616;2023-07-29T02:34:15;18.40;99.90
4904;DHT22;2467;48.142;11.616;2023-07-29T02:35:08;18.40;99.90
4904;DHT22;2467;48.142;11.616;2023-07-29T02:36:02;18.40;99.90
4904;DHT22;2467;48.142;11.616;2023-07-29T02:36:54;18.40;99.90
4904;DHT22;2467;48.142;11.616;2023-07-29T02:37:47;18.40;99.90
4904;DHT22;2467;48.142;11.616;2023-07-29T02:38:39;18.40;99.90
4904;DHT22;2467;48.142;11.616;2023-07-29T02:39:32;18.40;99.90
4904;DHT22;2467;48.142;11.616;2023-07-29T02:40:26;18.40;99.90
4904;DHT22;2467;48.142;11.616;2023-07-29T02:41:21;18.40;99.90
4904;DHT22;2467;48.142;11.616;2023-07-29T02:42:14;18.40;99.90
4904;DHT22;2467;48.142;11.616;2023-07-29T02:43:06;18.40;99.90
4904;DHT22;2467;48.142;11.616;2023-07-29T02:43:58;18.40;99.90
4904;DHT22;2467;48.142;11.616;2023-07-29T02:44:52;18.30;99.90
4904;DHT22;2467;48.142;11.616;2023-07-29T02:45:44;18.30;99.90
4904;DHT22;2467;48.142;11.616;2023-07-29T02:46:37;18.30;99.90
4904;DHT22;2467;48.142;11.616;2023-07-29T02:47:30;18.30;99.90
4904;DHT22;2467;48.142;11.616;2023-07-29T02:48:25;18.20;99.90
4904;DHT22;2467;48.142;11.616;2023-07-29T02:49:17;18.20;99.90
4904;DHT22;2467;48.142;11.616;2023-07-29T02:50:11;18.20;99.90
4904;DHT22;2467;48.142;11.616;2023-07-29T02:51:03;18.20;99.90
4904;DHT22;2467;48.142;11.616;2023-07-29T02:51:55;18.20;99.90
4904;DHT22;2467;48.142;11.616;2023-07-29T02:52:48;18.20;99.90
4904;DHT22;2467;48.142;11.616;2023-07-29T02:53:42;18.20;99.90
4904;DHT22;2467;48.142;11.616;2023-07-29T02:54:34;18.20;99.90
4904;DHT22;2467;48.142;11.616;2023-07-29T02:55:29;18.20;99.90
4904;DHT22;2467;48.142;11.616;2023-07-29T02:56:21;18.20;99.90
4904;DHT22;2467;48.142;11.616;2023-07-29T02:57:14;18.20;99.90
4904;DHT22;2467;48.142;11.616;2023-07-29T02:58:07;18.20;99.90
4904;DHT22;2467;48.142;11.616;2023-07-29T02:58:59;18.20;99.90
4904;DHT22;2467;48.142;11.616;2023-07-29T02:59:52;18.20;99.90
4904;DHT22;2467;48.142;11.616;2023-07-29T03:00:45;18.20;99.90
4904;DHT22;2467;48.142;11.616;2023-07-29T03:01:39;18.20;99.90
4904;DHT22;2467;48.142;11.616;2023-07-29T03:02:32;18.20;99.90
4904;DHT22;2467;48.142;11.616;2023-07-29T03:03:25;18.20;99.90
4904;DHT22;2467;48.142;11.616;2023-07-29T03:04:17;18.30;99.90
4904;DHT22;2467;48.142;11.616;2023-07-29T03:05:10;18.20;99.90
4904;DHT22;2467;48.142;11.616;2023-07-29T03:06:04;18.30;99.90
4904;DHT22;2467;48.142;11.616;2023-07-29T03:06:56;18.30;99.90
4904;DHT22;2467;48.142;11.616;2023-07-29T03:07:51;18.30;99.90
4904;DHT22;2467;48.142;11.616;2023-07-29T03:08:43;18.30;99.90
4904;DHT22;2467;48.142;11.616;2023-07-29T03:09:36;18.30;99.90
4904;DHT22;2467;48.142;11.616;2023-07-29T03:10:30;18.30;99.90
4904;DHT22;2467;48.142;11.616;2023-07-29T03:11:24;18.30;99.90
4904;DHT22;2467;48.142;11.616;2023-07-29T03:12:16;18.30;99.90
4904;DHT22;2467;48.142;11.616;2023-07-29T03:13:08;18.30;99.90
4904;DHT22;2467;48.142;11.616;2023-07-29T03:14:01;18.20;99.90
4904;DHT22;2467;48.142;11.616;2023-07-29T03:14:54;18.20;99.90
4904;DHT22;2467;48.142;11.616;2023-07-29T03:15:48;18.20;99.90
4904;DHT22;2467;48.142;11.616;2023-07-29T03:16:40;18.20;99.90
4904;DHT22;2467;48.142;11.616;2023-07-29T03:17:33;18.20;99.90
4904;DHT22;2467;48.142;11.616;2023-07-29T03:18:26;18.20;99.90
4904;DHT22;2467;48.142;11.616;2023-07-29T03:19:18;18.30;99.90
4904;DHT22;2467;48.142;11.616;2023-07-29T03:20:11;18.30;99.90
4904;DHT22;2467;48.142;11.616;2023-07-29T03:21:04;18.30;99.90
4904;DHT22;2467;48.142;11.616;2023-07-29T03:21:57;18.30;99.90
4904;DHT22;2467;48.142;11.616;2023-07-29T03:22:49;18.30;99.90
4904;DHT22;2467;48.142;11.616;2023-07-29T03:23:43;18.30;99.90
4904;DHT22;2467;48.142;11.616;2023-07-29T03:24:35;18.40;99.90
4904;DHT22;2467;48.142;11.616;2023-07-29T03:25:30;18.40;99.90
4904;DHT22;2467;48.142;11.616;2023-07-29T03:26:22;18.40;99.90
4904;DHT22;2467;48.142;11.616;2023-07-29T03:27:15;18.40;99.90
4904;DHT22;2467;48.142;11.616;2023-07-29T03:28:07;18.40;99.90
4904;DHT22;2467;48.142;11.616;2023-07-29T03:29:01;18.40;99.90
4904;DHT22;2467;48.142;11.616;2023-07-29T03:29:53;18.30;99.90
4904;DHT22;2467;48.142;11.616;2023-07-29T03:30:45;18.30;99.90
4904;DHT22;2467;48.142;11.616;2023-07-29T03:31:38;18.30;99.90
4904;DHT22;2467;48.142;11.616;2023-07-29T03:32:31;18.30;99.90
4904;DHT22;2467;48.142;11.616;2023-07-29T03:33:24;18.30;99.90
4904;DHT22;2467;48.142;11.616;2023-07-29T03:34:18;18.30;99.90
4904;DHT22;2467;48.142;11.616;2023-07-29T03:35:10;18.30;99.90
4904;DHT22;2467;48.142;11.616;2023-07-29T03:36:04;18.30;99.90
4904;DHT22;2467;48.142;11.616;2023-07-29T03:36:56;18.30;99.90
4904;DHT22;2467;48.142;11.616;2023-07-29T03:37:49;18.30;99.90
4904;DHT22;2467;48.142;11.616;2023-07-29T03:38:42;18.40;99.90
4904;DHT22;2467;48.142;11.616;2023-07-29T03:39:36;18.40;99.90
4904;DHT22;2467;48.142;11.616;2023-07-29T03:40:31;18.40;99.90
4904;DHT22;2467;48.142;11.616;2023-07-29T03:41:23;18.50;99.90
4904;DHT22;2467;48.142;11.616;2023-07-29T03:42:16;18.50;99.90
4904;DHT22;2467;48.142;11.616;2023-07-29T03:43:09;18.40;99.90
4904;DHT22;2467;48.142;11.616;2023-07-29T03:44:01;18.50;99.90
4904;DHT22;2467;48.142;11.616;2023-07-29T03:44:54;18.50;99.90
4904;DHT22;2467;48.142;11.616;2023-07-29T03:45:47;18.50;99.90
4904;DHT22;2467;48.142;11.616;2023-07-29T03:46:39;18.50;99.90
4904;DHT22;2467;48.142;11.616;2023-07-29T03:47:32;18.60;99.90
4904;DHT22;2467;48.142;11.616;2023-07-29T03:48:25;18.60;99.90
4904;DHT22;2467;48.142;11.616;2023-07-29T03:49:18;18.60;99.90
4904;DHT22;2467;48.142;11.616;2023-07-29T03:50:10;18.60;99.90
4904;DHT22;2467;48.142;11.616;2023-07-29T03:51:04;18.60;99.90
4904;DHT22;2467;48.142;11.616;2023-07-29T03:51:56;18.60;99.90
4904;DHT22;2467;48.142;11.616;2023-07-29T03:52:48;18.60;99.90
4904;DHT22;2467;48.142;11.616;2023-07-29T03:53:41;18.60;99.90
4904;DHT22;2467;48.142;11.616;2023-07-29T03:54:33;18.60;99.90
4904;DHT22;2467;48.142;11.616;2023-07-29T03:55:26;18.60;99.90
4904;DHT22;2467;48.142;11.616;2023-07-29T03:56:20;18.60;99.90
4904;DHT22;2467;48.142;11.616;2023-07-29T03:57:13;18.60;99.90
4904;DHT22;2467;48.142;11.616;2023-07-29T03:58:05;18.60;99.90
4904;DHT22;2467;48.142;11.616;2023-07-29T03:59:03;18.50;99.90
4904;DHT22;2467;48.142;11.616;2023-07-29T03:59:55;18.50;99.90
4904;DHT22;2467;48.142;11.616;2023-07-29T04:00:47;18.50;99.90
4904;DHT22;2467;48.142;11.616;2023-07-29T04:01:41;18.50;99.90
4904;DHT22;2467;48.142;11.616;2023-07-29T04:02:33;18.60;99.90
4904;DHT22;2467;48.142;11.616;2023-07-29T04:03:29;18.50;99.90
4904;DHT22;2467;48.142;11.616;2023-07-29T04:04:21;18.60;99.90
4904;DHT22;2467;48.142;11.616;2023-07-29T04:05:15;18.60;99.90
4904;DHT22;2467;48.142;11.616;2023-07-29T04:06:07;18.60;99.90
4904;DHT22;2467;48.142;11.616;2023-07-29T04:07:00;18.50;99.90
4904;DHT22;2467;48.142;11.616;2023-07-29T04:07:54;18.60;99.90
4904;DHT22;2467;48.142;11.616;2023-07-29T04:08:46;18.50;99.90
4904;DHT22;2467;48.142;11.616;2023-07-29T04:09:39;18.50;99.90
4904;DHT22;2467;48.142;11.616;2023-07-29T04:10:32;18.60;99.90
4904;DHT22;2467;48.142;11.616;2023-07-29T04:11:25;18.60;99.90
4904;DHT22;2467;48.142;11.616;2023-07-29T04:12:19;18.60;99.90
4904;DHT22;2467;48.142;11.616;2023-07-29T04:13:13;18.60;99.90
4904;DHT22;2467;48.142;11.616;2023-07-29T04:14:06;18.60;99.90
4904;DHT22;2467;48.142;11.616;2023-07-29T04:14:58;18.60;99.90
4904;DHT22;2467;48.142;11.616;2023-07-29T04:15:51;18.60;99.90
4904;DHT22;2467;48.142;11.616;2023-07-29T04:16:44;18.70;99.90
4904;DHT22;2467;48.142;11.616;2023-07-29T04:17:40;18.70;99.90
4904;DHT22;2467;48.142;11.616;2023-07-29T04:18:33;18.60;99.90
4904;DHT22;2467;48.142;11.616;2023-07-29T04:19:26;18.60;99.90
4904;DHT22;2467;48.142;11.616;2023-07-29T04:20:18;18.60;99.90
4904;DHT22;2467;48.142;11.616;2023-07-29T04:21:11;18.60;99.90
4904;DHT22;2467;48.142;11.616;2023-07-29T04:22:04;18.60;99.90
4904;DHT22;2467;48.142;11.616;2023-07-29T04:22:56;18.70;99.90
4904;DHT22;2467;48.142;11.616;2023-07-29T04:23:49;18.70;99.90
4904;DHT22;2467;48.142;11.616;2023-07-29T04:24:42;18.80;99.90
4904;DHT22;2467;48.142;11.616;2023-07-29T04:25:34;18.80;99.90
4904;DHT22;2467;48.142;11.616;2023-07-29T04:26:28;18.80;99.90
4904;DHT22;2467;48.142;11.616;2023-07-29T04:27:21;18.90;99.90
4904;DHT22;2467;48.142;11.616;2023-07-29T04:28:13;18.90;99.90
4904;DHT22;2467;48.142;11.616;2023-07-29T04:29:06;18.90;99.90
4904;DHT22;2467;48.142;11.616;2023-07-29T04:29:59;18.90;99.90
4904;DHT22;2467;48.142;11.616;2023-07-29T04:30:52;18.90;99.90
4904;DHT22;2467;48.142;11.616;2023-07-29T04:31:44;18.90;99.90
4904;DHT22;2467;48.142;11.616;2023-07-29T04:32:36;18.90;99.90
4904;DHT22;2467;48.142;11.616;2023-07-29T04:33:30;18.90;99.90
4904;DHT22;2467;48.142;11.616;2023-07-29T04:34:25;18.90;99.90
4904;DHT22;2467;48.142;11.616;2023-07-29T04:35:18;18.90;99.90
4904;DHT22;2467;48.142;11.616;2023-07-29T04:36:10;18.90;99.90
4904;DHT22;2467;48.142;11.616;2023-07-29T04:37:04;18.90;99.90
4904;DHT22;2467;48.142;11.616;2023-07-29T04:37:56;18.90;99.90
4904;DHT22;2467;48.142;11.616;2023-07-29T04:38:48;18.80;99.90
4904;DHT22;2467;48.142;11.616;2023-07-29T04:39:41;18.80;99.90
4904;DHT22;2467;48.142;11.616;2023-07-29T04:40:34;18.80;99.90
4904;DHT22;2467;48.142;11.616;2023-07-29T04:41:28;18.80;99.90
4904;DHT22;2467;48.142;11.616;2023-07-29T04:42:20;18.80;99.90
4904;DHT22;2467;48.142;11.616;2023-07-29T04:43:14;18.80;99.90
4904;DHT22;2467;48.142;11.616;2023-07-29T04:44:06;18.80;99.90
4904;DHT22;2467;48.142;11.616;2023-07-29T04:44:59;18.80;99.90
4904;DHT22;2467;48.142;11.616;2023-07-29T04:45:51;18.80;99.90
4904;DHT22;2467;48.142;11.616;2023-07-29T04:46:43;18.80;99.90
4904;DHT22;2467;48.142;11.616;2023-07-29T04:47:36;18.80;99.90
4904;DHT22;2467;48.142;11.616;2023-07-29T04:48:29;18.70;99.90
4904;DHT22;2467;48.142;11.616;2023-07-29T04:49:21;18.70;99.90
4904;DHT22;2467;48.142;11.616;2023-07-29T04:50:15;18.70;99.90
4904;DHT22;2467;48.142;11.616;2023-07-29T04:51:07;18.70;99.90
4904;DHT22;2467;48.142;11.616;2023-07-29T04:51:59;18.70;99.90
4904;DHT22;2467;48.142;11.616;2023-07-29T04:52:52;18.70;99.90
4904;DHT22;2467;48.142;11.616;2023-07-29T04:53:45;18.70;99.90
4904;DHT22;2467;48.142;11.616;2023-07-29T04:54:37;18.70;99.90
4904;DHT22;2467;48.142;11.616;2023-07-29T04:55:30;18.80;99.90
4904;DHT22;2467;48.142;11.616;2023-07-29T04:56:23;18.80;99.90
4904;DHT22;2467;48.142;11.616;2023-07-29T04:57:16;18.80;99.90
4904;DHT22;2467;48.142;11.616;2023-07-29T04:58:10;18.90;99.90
4904;DHT22;2467;48.142;11.616;2023-07-29T04:59:02;18.90;99.90
4904;DHT22;2467;48.142;11.616;2023-07-29T04:59:54;18.90;99.90
4904;DHT22;2467;48.142;11.616;2023-07-29T05:00:47;18.90;99.90
4904;DHT22;2467;48.142;11.616;2023-07-29T05:01:39;19.00;99.90
4904;DHT22;2467;48.142;11.616;2023-07-29T05:02:34;19.00;99.90
4904;DHT22;2467;48.142;11.616;2023-07-29T05:03:26;19.00;99.90
4904;DHT22;2467;48.142;11.616;2023-07-29T05:04:19;19.00;99.90
4904;DHT22;2467;48.142;11.616;2023-07-29T05:05:12;19.00;99.90
4904;DHT22;2467;48.142;11.616;2023-07-29T05:06:04;19.10;99.90
4904;DHT22;2467;48.142;11.616;2023-07-29T05:06:56;19.10;99.90
4904;DHT22;2467;48.142;11.616;2023-07-29T05:07:50;19.10;99.90
4904;DHT22;2467;48.142;11.616;2023-07-29T05:08:42;19.10;99.90
4904;DHT22;2467;48.142;11.616;2023-07-29T05:09:34;19.10;99.90
4904;DHT22;2467;48.142;11.616;2023-07-29T05:10:27;19.10;99.90
4904;DHT22;2467;48.142;11.616;2023-07-29T05:11:19;19.10;99.90
4904;DHT22;2467;48.142;11.616;2023-07-29T05:12:13;19.10;99.90
4904;DHT22;2467;48.142;11.616;2023-07-29T05:13:07;19.10;99.90
4904;DHT22;2467;48.142;11.616;2023-07-29T05:14:00;19.20;99.90
4904;DHT22;2467;48.142;11.616;2023-07-29T05:14:55;19.20;99.90
4904;DHT22;2467;48.142;11.616;2023-07-29T05:15:48;19.20;99.90
4904;DHT22;2467;48.142;11.616;2023-07-29T05:16:41;19.20;99.90
4904;DHT22;2467;48.142;11.616;2023-07-29T05:17:33;19.30;99.90
4904;DHT22;2467;48.142;11.616;2023-07-29T05:18:27;19.30;99.90
4904;DHT22;2467;48.142;11.616;2023-07-29T05:19:19;19.30;99.90
4904;DHT22;2467;48.142;11.616;2023-07-29T05:20:11;19.30;99.90
4904;DHT22;2467;48.142;11.616;2023-07-29T05:21:04;19.40;99.90
4904;DHT22;2467;48.142;11.616;2023-07-29T05:21:57;19.50;99.90
4904;DHT22;2467;48.142;11.616;2023-07-29T05:22:50;19.40;99.90
4904;DHT22;2467;48.142;11.616;2023-07-29T05:23:42;19.50;99.90
4904;DHT22;2467;48.142;11.616;2023-07-29T05:24:34;19.40;99.90
4904;DHT22;2467;48.142;11.616;2023-07-29T05:25:28;19.50;99.90
4904;DHT22;2467;48.142;11.616;2023-07-29T05:26:21;19.50;99.90
4904;DHT22;2467;48.142;11.616;2023-07-29T05:27:14;19.50;99.90
4904;DHT22;2467;48.142;11.616;2023-07-29T05:28:08;19.50;99.90
4904;DHT22;2467;48.142;11.616;2023-07-29T05:29:01;19.50;99.90
4904;DHT22;2467;48.142;11.616;2023-07-29T05:29:53;19.50;99.90
4904;DHT22;2467;48.142;11.616;2023-07-29T05:30:45;19.50;99.90
4904;DHT22;2467;48.142;11.616;2023-07-29T05:31:39;19.50;99.90
4904;DHT22;2467;48.142;11.616;2023-07-29T05:32:31;19.60;99.90
4904;DHT22;2467;48.142;11.616;2023-07-29T05:33:23;19.60;99.90
4904;DHT22;2467;48.142;11.616;2023-07-29T05:34:16;19.60;99.90
4904;DHT22;2467;48.142;11.616;2023-07-29T05:35:09;19.60;99.90
4904;DHT22;2467;48.142;11.616;2023-07-29T05:36:02;19.70;99.90
4904;DHT22;2467;48.142;11.616;2023-07-29T05:36:54;19.70;99.90
4904;DHT22;2467;48.142;11.616;2023-07-29T05:37:48;19.70;99.90
4904;DHT22;2467;48.142;11.616;2023-07-29T05:38:40;19.70;99.90
4904;DHT22;2467;48.142;11.616;2023-07-29T05:39:33;19.70;99.90
4904;DHT22;2467;48.142;11.616;2023-07-29T05:40:25;19.70;99.90
4904;DHT22;2467;48.142;11.616;2023-07-29T05:41:18;19.70;99.90
4904;DHT22;2467;48.142;11.616;2023-07-29T05:42:11;19.70;99.90
4904;DHT22;2467;48.142;11.616;2023-07-29T05:43:03;19.70;99.90